Time;durP1;ratioP1;P1;durP2;ratioP2;P2;SDS_P1;SDS_P2;PMS_P1;PMS_P2;Temp;Humidity;BMP_temperature;BMP_pressure;BME280_temperature;BME280_humidity;BME280_pressure;Samples;Min_cycle;Max_cycle;Signal;HPM_P1;HPM_P2
2022/03/18 00:00:08;;;;;;;35.90;21.30;;;;;;;6.72;97.74;100306.31;5008844;28;20217;-48
2022/03/18 00:02:39;;;;;;;35.47;20.47;;;;;;;6.79;97.21;100305.06;5009595;28;20312;-50
2022/03/18 00:05:07;;;;;;;33.63;21.23;;;;;;;6.78;97.72;100311.16;5009019;28;20185;-48
2022/03/18 00:07:33;;;;;;;35.87;22.40;;;;;;;6.71;99.51;100304.63;5008850;28;20243;-48
2022/03/18 00:10:01;;;;;;;38.30;22.27;;;;;;;6.69;99.17;100309.94;5008790;28;20219;-53
2022/03/18 00:12:28;;;;;;;32.50;20.27;;;;;;;6.71;99.07;100307.22;5009362;28;20191;-48
2022/03/18 00:14:55;;;;;;;40.43;21.30;;;;;;;6.69;99.67;100307.34;5008780;28;20193;-46
2022/03/18 00:17:21;;;;;;;33.33;20.87;;;;;;;6.65;99.08;100305.81;5010703;28;20181;-48
2022/03/18 00:19:48;;;;;;;34.30;20.50;;;;;;;6.73;98.31;100307.97;4993281;28;20190;-52
2022/03/18 00:22:16;;;;;;;33.77;21.17;;;;;;;6.70;98.07;100306.41;4991261;28;20209;-52
2022/03/18 00:24:42;;;;;;;31.17;19.13;;;;;;;6.77;96.42;100314.69;4991214;28;20298;-51
2022/03/18 00:27:12;;;;;;;31.27;19.67;;;;;;;6.79;96.63;100312.84;4991675;28;20241;-47
2022/03/18 00:29:38;;;;;;;33.43;18.93;;;;;;;6.76;95.62;100310.41;4990009;28;20197;-51
2022/03/18 00:32:06;;;;;;;34.47;19.90;;;;;;;6.75;95.63;100308.75;4990163;28;20212;-48
2022/03/18 00:34:32;;;;;;;32.10;18.67;;;;;;;6.75;97.25;100319.97;4991135;28;20262;-50
2022/03/18 00:36:59;;;;;;;35.33;19.93;;;;;;;6.76;96.59;100318.19;4991575;28;20198;-50
2022/03/18 00:39:26;;;;;;;33.47;19.60;;;;;;;6.71;96.02;100309.81;4991548;28;20203;-48
2022/03/18 00:41:53;;;;;;;31.83;19.43;;;;;;;6.70;96.50;100315.94;4991273;28;20217;-52
2022/03/18 00:44:25;;;;;;;29.37;18.23;;;;;;;6.67;97.04;100321.28;4991150;28;20712;-48
2022/03/18 00:46:52;;;;;;;28.27;17.93;;;;;;;6.69;97.11;100316.84;4991493;28;20674;-50
2022/03/18 00:52:06;;;;;;;30.53;17.50;;;;;;;6.70;97.06;100314.19;4991259;28;20802;-52
2022/03/18 00:54:34;;;;;;;27.93;18.87;;;;;;;6.68;96.20;100320.38;4990859;28;20196;-49
2022/03/18 00:57:01;;;;;;;28.00;17.70;;;;;;;6.71;96.90;100320.22;5002377;28;20735;-51
2022/03/18 00:59:30;;;;;;;28.43;17.13;;;;;;;6.70;97.51;100319.38;5010326;28;20279;-51
2022/03/18 01:01:57;;;;;;;24.27;14.93;;;;;;;6.68;94.80;100325.56;5009061;28;20212;-48
2022/03/18 01:04:25;;;;;;;27.10;17.00;;;;;;;6.63;95.09;100316.28;5010713;28;20648;-51
2022/03/18 01:06:53;;;;;;;27.23;16.43;;;;;;;6.63;96.15;100321.47;5010229;28;20262;-52
2022/03/18 01:09:21;;;;;;;28.73;15.83;;;;;;;6.62;97.11;100321.56;5010789;28;20181;-48
2022/03/18 01:11:49;;;;;;;24.90;15.70;;;;;;;6.70;97.05;100332.34;5008955;28;20212;-52
2022/03/18 01:14:16;;;;;;;24.93;15.00;;;;;;;6.68;94.71;100322.97;5009778;28;20684;-48
2022/03/18 01:16:44;;;;;;;24.50;14.27;;;;;;;6.60;93.57;100320.81;5010413;28;20277;-47
2022/03/18 01:19:12;;;;;;;21.50;14.33;;;;;;;6.64;93.09;100319.72;4998252;28;20268;-50
2022/03/18 01:21:39;;;;;;;21.43;13.60;;;;;;;6.59;93.16;100319.94;4990318;28;20209;-51
2022/03/18 01:24:07;;;;;;;21.93;12.47;;;;;;;6.59;93.66;100321.72;4990165;28;20189;-47
2022/03/18 01:26:34;;;;;;;20.60;13.10;;;;;;;6.53;93.92;100317.69;4990791;28;20216;-47
2022/03/18 01:29:01;;;;;;;21.27;12.67;;;;;;;6.55;94.40;100320.22;4990476;28;20675;-47
2022/03/18 01:31:28;;;;;;;24.70;13.70;;;;;;;6.50;93.45;100320.44;4990049;28;20304;-49
2022/03/18 01:33:56;;;;;;;21.37;13.87;;;;;;;6.47;94.24;100318.88;4990618;28;20181;-50
2022/03/18 01:36:23;;;;;;;21.47;13.20;;;;;;;6.52;94.70;100325.56;4990394;28;20228;-50
2022/03/18 01:38:50;;;;;;;21.47;12.20;;;;;;;6.51;94.44;100319.53;4989424;28;20231;-46
2022/03/18 01:41:17;;;;;;;27.00;13.07;;;;;;;6.55;93.46;100331.41;4989004;28;20748;-50
2022/03/18 01:43:46;;;;;;;20.03;12.30;;;;;;;6.53;92.33;100328.06;4990517;28;20185;-52
2022/03/18 01:46:14;;;;;;;23.10;12.87;;;;;;;6.52;92.85;100330.75;4990169;28;20303;-45
2022/03/18 01:48:41;;;;;;;20.30;11.77;;;;;;;6.49;91.49;100324.81;4990203;28;20192;-46
2022/03/18 01:51:10;;;;;;;18.77;12.70;;;;;;;6.43;92.27;100326.88;4990347;28;20213;-47
2022/03/18 01:53:38;;;;;;;22.13;13.43;;;;;;;6.48;91.63;100335.25;4990632;28;20201;-50
2022/03/18 01:56:06;;;;;;;19.10;12.93;;;;;;;6.41;92.09;100328.72;4990278;28;20680;-47
2022/03/18 01:58:33;;;;;;;23.48;15.60;;;;;;;6.40;92.77;100327.03;5006631;28;20435;-48
2022/03/18 02:01:01;;;;;;;23.10;13.30;;;;;;;6.44;92.71;100328.56;5009528;28;20196;-47
2022/03/18 02:03:28;;;;;;;22.13;13.03;;;;;;;6.37;93.69;100332.41;5010190;28;20209;-51
2022/03/18 02:05:55;;;;;;;22.73;12.63;;;;;;;6.36;94.37;100331.56;5009867;28;20190;-52
2022/03/18 02:08:25;;;;;;;21.93;12.93;;;;;;;6.34;93.12;100336.84;5009943;28;20186;-50
2022/03/18 02:10:52;;;;;;;20.57;13.13;;;;;;;6.34;92.52;100338.59;5009960;28;20679;-47
2022/03/18 02:13:19;;;;;;;17.80;11.97;;;;;;;6.34;92.73;100339.44;5010104;28;20184;-50
2022/03/18 02:15:46;;;;;;;19.40;11.90;;;;;;;6.35;92.94;100343.72;5008061;28;20283;-51
2022/03/18 02:18:13;;;;;;;19.57;12.30;;;;;;;6.41;92.68;100339.94;5006485;28;20200;-50
2022/03/18 02:20:40;;;;;;;18.97;12.33;;;;;;;6.43;92.04;100350.22;4993861;28;20216;-49
2022/03/18 02:23:08;;;;;;;16.93;11.27;;;;;;;6.35;91.85;100346.31;4994485;28;20612;-46
2022/03/18 02:25:35;;;;;;;22.63;12.30;;;;;;;6.32;92.54;100351.66;4993348;28;20700;-47
2022/03/18 02:28:03;;;;;;;21.17;12.70;;;;;;;6.32;93.87;100343.88;4993799;28;20677;-49
2022/03/18 02:30:33;;;;;;;18.83;11.83;;;;;;;6.36;92.31;100349.72;4993400;28;20201;-47
2022/03/18 02:33:00;;;;;;;18.43;11.93;;;;;;;6.27;92.91;100347.63;4993928;28;20201;-50
2022/03/18 02:35:28;;;;;;;22.33;11.80;;;;;;;6.27;94.80;100345.88;4993538;28;20228;-49
2022/03/18 02:37:56;;;;;;;18.20;11.90;;;;;;;6.26;95.15;100351.13;4993651;28;20201;-50
2022/03/18 02:40:24;;;;;;;20.27;12.07;;;;;;;6.27;94.73;100350.22;4992994;28;20280;-50
2022/03/18 02:42:52;;;;;;;19.83;11.73;;;;;;;6.25;93.02;100350.31;4994056;28;20218;-50
2022/03/18 02:45:19;;;;;;;21.80;11.77;;;;;;;6.27;93.13;100353.66;4992976;28;20272;-49
2022/03/18 02:47:46;;;;;;;21.63;12.60;;;;;;;6.28;93.07;100354.47;4992622;28;20221;-49
2022/03/18 02:50:15;;;;;;;20.23;12.17;;;;;;;6.30;92.54;100345.72;4993403;28;20209;-49
2022/03/18 02:52:42;;;;;;;20.13;12.03;;;;;;;6.25;91.10;100358.09;4993106;28;20200;-51
2022/03/18 02:55:10;;;;;;;22.37;12.27;;;;;;;6.21;91.67;100353.97;4993389;28;20312;-51
2022/03/18 02:57:38;;;;;;;22.80;13.02;;;;;;;6.29;91.26;100359.59;4995879;28;20442;-50
2022/03/18 03:00:07;;;;;;;25.07;12.03;;;;;;;6.25;91.60;100355.50;5011420;28;20237;-51
2022/03/18 03:02:34;;;;;;;18.53;11.80;;;;;;;6.24;92.58;100353.81;5012917;28;20299;-49
2022/03/18 03:08:00;;;;;;;27.97;12.03;;;;;;;6.18;91.82;100360.16;5012833;28;20572;-49
2022/03/18 03:10:28;;;;;;;20.67;11.67;;;;;;;6.16;92.19;100361.16;5012476;28;20258;-48
2022/03/18 03:12:57;;;;;;;19.33;11.57;;;;;;;6.15;92.19;100360.31;5012620;28;20195;-49
2022/03/18 03:15:24;;;;;;;20.87;11.53;;;;;;;6.15;92.78;100364.66;5011537;28;20228;-49
2022/03/18 03:17:50;;;;;;;19.53;12.13;;;;;;;6.15;91.68;100365.50;5010737;28;20188;-52
2022/03/18 03:20:17;;;;;;;27.27;11.87;;;;;;;6.11;92.78;100357.97;4991311;28;20218;-48
2022/03/18 03:22:44;;;;;;;23.13;11.33;;;;;;;6.16;92.76;100366.34;4991722;28;20587;-49
2022/03/18 03:25:11;;;;;;;21.47;11.97;;;;;;;6.14;91.65;100370.78;4992567;28;20193;-51
2022/03/18 03:27:38;;;;;;;21.73;12.03;;;;;;;6.07;91.68;100366.81;4992616;28;20196;-51
2022/03/18 03:30:09;;;;;;;19.90;11.10;;;;;;;6.08;92.22;100371.09;4992895;28;20244;-50
2022/03/18 03:32:37;;;;;;;20.30;11.00;;;;;;;6.15;93.24;100372.44;5009759;28;20203;-49
2022/03/18 03:35:05;;;;;;;22.60;12.50;;;;;;;6.09;92.96;100376.19;5010434;28;20251;-48
2022/03/18 03:37:32;;;;;;;20.83;11.90;;;;;;;6.04;93.22;100379.00;5011153;28;20248;-51
2022/03/18 03:40:01;;;;;;;22.20;11.60;;;;;;;6.14;92.51;100379.38;5011002;28;20208;-48
2022/03/18 03:42:28;;;;;;;24.23;12.03;;;;;;;6.03;92.46;100381.66;5010647;28;20223;-51
2022/03/18 03:44:55;;;;;;;19.47;12.33;;;;;;;5.97;92.72;100382.81;5011226;28;20199;-47
2022/03/18 03:47:23;;;;;;;20.90;11.47;;;;;;;5.99;91.77;100380.97;5009700;28;20201;-47
2022/03/18 03:49:50;;;;;;;18.33;11.50;;;;;;;6.00;92.20;100386.97;5010716;28;20208;-49
2022/03/18 03:52:17;;;;;;;16.97;11.00;;;;;;;5.98;93.29;100388.81;5010007;28;20569;-51
2022/03/18 03:54:44;;;;;;;24.40;11.37;;;;;;;5.97;93.69;100398.34;5010382;28;20697;-49
2022/03/18 03:57:10;;;;;;;24.90;12.38;;;;;;;5.97;93.02;100402.69;5010408;28;20443;-49
2022/03/18 03:59:37;;;;;;;20.83;10.67;;;;;;;6.03;92.26;100392.91;5009350;28;20223;-47
2022/03/18 04:02:04;;;;;;;20.17;11.23;;;;;;;5.96;92.28;100398.41;5010450;28;20192;-48
2022/03/18 04:04:33;;;;;;;25.60;12.13;;;;;;;6.03;92.59;100402.41;5010380;28;20185;-50
2022/03/18 04:07:00;;;;;;;22.30;11.70;;;;;;;5.93;91.58;100396.84;5010785;28;20200;-48
2022/03/18 04:09:27;;;;;;;21.97;12.50;;;;;;;5.91;91.86;100404.66;5011355;28;20272;-50
2022/03/18 04:11:54;;;;;;;20.50;11.57;;;;;;;5.96;92.59;100406.19;5010687;28;20638;-49
2022/03/18 04:14:21;;;;;;;18.87;10.80;;;;;;;6.00;92.17;100403.41;5011184;28;20209;-47
2022/03/18 04:16:48;;;;;;;16.73;10.87;;;;;;;5.96;91.33;100412.22;5009851;28;20620;-47
2022/03/18 04:19:14;;;;;;;18.93;11.40;;;;;;;5.95;92.56;100412.28;4997632;28;20224;-48
2022/03/18 04:21:43;;;;;;;22.43;11.53;;;;;;;5.98;93.14;100406.97;4991180;28;20257;-48
2022/03/18 04:24:10;;;;;;;19.67;11.50;;;;;;;5.93;94.02;100412.38;4990771;28;20197;-50
2022/03/18 04:26:37;;;;;;;19.00;10.70;;;;;;;6.00;92.89;100431.03;4991156;28;20555;-51
2022/03/18 04:29:04;;;;;;;23.90;11.40;;;;;;;5.91;92.50;100425.41;4991417;28;20603;-51
2022/03/18 04:31:30;;;;;;;18.57;11.47;;;;;;;5.91;93.48;100422.00;4990799;28;20220;-51
2022/03/18 04:33:57;;;;;;;23.23;12.63;;;;;;;5.91;93.02;100425.41;4990824;28;20477;-51
2022/03/18 04:36:24;;;;;;;19.60;11.30;;;;;;;5.94;92.01;100429.63;4989859;28;20577;-51
2022/03/18 04:38:52;;;;;;;21.03;11.70;;;;;;;5.98;91.53;100423.38;4991263;28;20185;-47
2022/03/18 04:41:19;;;;;;;20.97;11.63;;;;;;;5.97;92.28;100424.28;4990331;28;20213;-47
2022/03/18 04:43:46;;;;;;;21.87;11.67;;;;;;;5.93;92.06;100432.25;4991044;28;20263;-47
2022/03/18 04:46:12;;;;;;;20.90;12.50;;;;;;;5.84;92.66;100423.22;4990866;28;20194;-47
2022/03/18 04:48:39;;;;;;;21.83;12.10;;;;;;;5.87;93.16;100430.84;4989954;28;20284;-48
2022/03/18 04:51:06;;;;;;;22.83;11.53;;;;;;;5.88;92.47;100425.56;4990582;28;20304;-50
2022/03/18 04:53:33;;;;;;;19.00;11.60;;;;;;;5.90;92.84;100435.88;4989850;28;20200;-50
2022/03/18 04:56:01;;;;;;;31.10;12.33;;;;;;;5.83;94.04;100437.91;4990224;28;20645;-51
2022/03/18 04:58:28;;;;;;;21.60;12.23;;;;;;;5.87;93.81;100433.41;4990456;28;20199;-48
2022/03/18 05:00:55;;;;;;;20.97;11.40;;;;;;;5.83;94.38;100437.06;5002793;28;20216;-51
2022/03/18 05:03:22;;;;;;;24.90;12.77;;;;;;;5.81;94.53;100438.91;5010953;28;20208;-47
2022/03/18 05:05:48;;;;;;;28.73;13.27;;;;;;;5.81;94.89;100438.91;5009815;28;20188;-48
2022/03/18 05:08:15;;;;;;;21.83;11.27;;;;;;;5.81;93.80;100433.72;5006347;28;20641;-51
2022/03/18 05:10:42;;;;;;;19.57;12.33;;;;;;;5.86;93.13;100435.16;5009867;28;20212;-52
2022/03/18 05:13:10;;;;;;;23.90;12.27;;;;;;;5.84;93.66;100439.56;5010219;28;20659;-50
2022/03/18 05:15:37;;;;;;;20.93;12.07;;;;;;;5.84;95.37;100433.56;5007956;28;20682;-48
2022/03/18 05:18:04;;;;;;;19.83;12.07;;;;;;;5.89;94.70;100429.81;5010560;28;20180;-51
2022/03/18 05:20:31;;;;;;;19.17;11.60;;;;;;;5.90;93.86;100436.69;5009687;28;20208;-51
2022/03/18 05:22:59;;;;;;;22.63;11.50;;;;;;;5.90;93.39;100448.81;5009048;28;20222;-46
2022/03/18 05:25:25;;;;;;;19.07;11.30;;;;;;;5.93;92.16;100446.09;5010063;28;20192;-50
2022/03/18 05:27:53;;;;;;;18.37;11.13;;;;;;;5.91;92.73;100453.91;5009049;28;20239;-51
2022/03/18 05:30:21;;;;;;;20.83;12.17;;;;;;;5.93;92.40;100453.00;5009632;28;20711;-47
2022/03/18 05:32:48;;;;;;;22.30;13.07;;;;;;;5.93;92.51;100461.63;5009766;28;20194;-49
2022/03/18 05:35:18;;;;;;;22.53;11.97;;;;;;;5.92;92.25;100457.38;5009524;28;20184;-50
2022/03/18 05:37:46;;;;;;;21.70;11.90;;;;;;;5.86;92.28;100463.66;5010292;28;20178;-50
2022/03/18 05:40:14;;;;;;;24.77;12.90;;;;;;;5.80;92.92;100464.00;5009855;28;20215;-50
2022/03/18 05:42:41;;;;;;;24.00;13.07;;;;;;;5.85;93.10;100468.94;5009960;28;20640;-48
2022/03/18 05:45:09;;;;;;;23.73;13.93;;;;;;;5.85;92.97;100474.94;5009278;28;20188;-46
2022/03/18 05:47:38;;;;;;;21.67;13.17;;;;;;;5.80;93.49;100469.19;5009589;28;20416;-48
2022/03/18 05:50:06;;;;;;;26.23;13.77;;;;;;;5.80;93.68;100466.59;5009399;28;20216;-47
2022/03/18 05:52:34;;;;;;;25.00;13.57;;;;;;;5.85;92.91;100487.09;5009017;28;20628;-49
2022/03/18 05:55:00;;;;;;;23.70;13.23;;;;;;;5.78;93.57;100472.75;5013577;28;20181;-46
2022/03/18 05:57:27;;;;;;;26.48;14.48;;;;;;;5.81;93.67;100475.19;5011202;28;20446;-47
2022/03/18 05:59:55;;;;;;;36.70;19.90;;;;;;;5.83;92.86;100478.53;5013020;28;20345;-48
2022/03/18 06:02:22;;;;;;;25.47;14.13;;;;;;;5.90;93.17;100482.53;5010450;28;20199;-46
2022/03/18 06:04:51;;;;;;;26.80;13.43;;;;;;;5.91;92.96;100481.59;5011582;28;20632;-49
2022/03/18 06:07:18;;;;;;;28.80;14.43;;;;;;;5.91;93.06;100484.19;5013894;28;20186;-51
2022/03/18 06:12:30;;;;;;;25.23;13.57;;;;;;;5.93;92.89;100479.78;5013922;28;20270;-50
2022/03/18 06:14:56;;;;;;;22.10;13.10;;;;;;;5.97;92.98;100477.84;5010845;28;20248;-50
2022/03/18 06:17:23;;;;;;;25.67;14.47;;;;;;;6.00;93.38;100472.53;5013040;28;20201;-45
2022/03/18 06:19:51;;;;;;;22.73;14.40;;;;;;;5.99;92.91;100483.81;5008459;28;20189;-50
2022/03/18 06:22:18;;;;;;;27.73;14.77;;;;;;;6.04;92.44;100481.88;5013254;28;20189;-50
2022/03/18 06:24:45;;;;;;;26.87;14.43;;;;;;;6.08;92.48;100492.94;5011829;28;20714;-48
2022/03/18 06:27:11;;;;;;;31.77;14.77;;;;;;;6.10;92.06;100489.34;5012860;28;20480;-50
2022/03/18 06:29:43;;;;;;;27.77;14.20;;;;;;;6.10;92.23;100486.75;5012984;28;20183;-47
2022/03/18 06:32:10;;;;;;;29.50;15.53;;;;;;;6.11;92.22;100485.00;5013230;28;20200;-46
2022/03/18 06:34:37;;;;;;;30.93;10.50;;;;;;;5.98;92.50;100490.75;5011081;28;20197;-48
2022/03/18 06:37:05;;;;;;;26.90;15.43;;;;;;;6.07;92.72;100497.25;5013001;28;20193;-46
2022/03/18 06:39:33;;;;;;;29.53;14.43;;;;;;;6.10;92.37;100504.06;5012754;28;20184;-46
2022/03/18 06:42:00;;;;;;;25.93;15.13;;;;;;;6.13;92.13;100509.09;5012695;28;20652;-50
2022/03/18 06:44:27;;;;;;;27.53;14.07;;;;;;;6.20;91.30;100507.88;5010780;28;20312;-50
2022/03/18 06:46:54;;;;;;;31.37;15.30;;;;;;;6.26;91.35;100510.19;5012052;28;20215;-49
2022/03/18 06:49:20;;;;;;;28.20;15.20;;;;;;;6.33;90.77;100503.78;5012342;28;20192;-51
2022/03/18 06:51:47;;;;;;;33.87;15.30;;;;;;;6.25;91.56;100513.69;5011905;28;20295;-48
2022/03/18 06:54:15;;;;;;;33.10;16.07;;;;;;;6.25;90.82;100521.47;5012169;28;20196;-49
2022/03/18 06:56:43;;;;;;;29.90;15.70;;;;;;;6.29;90.75;100522.13;5009350;28;20203;-51
2022/03/18 06:59:09;;;;;;;32.93;16.77;;;;;;;6.26;90.83;100523.16;5009114;28;20197;-50
2022/03/18 07:01:36;;;;;;;30.20;16.93;;;;;;;6.32;91.38;100528.03;5009305;28;20517;-50
2022/03/18 07:04:03;;;;;;;34.33;16.43;;;;;;;6.37;91.21;100532.13;5010170;28;20212;-48
2022/03/18 07:06:30;;;;;;;29.30;16.23;;;;;;;6.47;91.26;100523.81;5012393;28;20188;-48
2022/03/18 07:08:56;;;;;;;32.57;16.60;;;;;;;6.47;90.13;100526.41;5012471;28;20559;-50
2022/03/18 07:11:25;;;;;;;28.53;16.33;;;;;;;6.64;89.04;100528.13;5011992;28;20916;-48
2022/03/18 07:13:52;;;;;;;28.20;15.97;;;;;;;6.64;89.04;100520.34;5012865;28;20189;-49
2022/03/18 07:19:04;;;;;;;28.13;15.50;;;;;;;6.92;87.25;100516.34;5000769;28;20201;-51
2022/03/18 07:21:33;;;;;;;28.47;16.77;;;;;;;6.80;88.57;100527.34;4997298;28;20224;-50
2022/03/18 07:23:59;;;;;;;25.47;14.87;;;;;;;6.97;86.60;100523.03;5008950;28;20468;-49
2022/03/18 07:26:28;;;;;;;28.40;16.07;;;;;;;7.17;86.00;100520.22;5011809;28;20196;-47
2022/03/18 07:28:54;;;;;;;29.00;15.83;;;;;;;7.27;85.64;100519.75;5010673;28;20188;-48
2022/03/18 07:31:21;;;;;;;31.30;17.47;;;;;;;7.18;85.56;100521.91;5009494;28;20275;-48
2022/03/18 07:33:48;;;;;;;30.87;17.40;;;;;;;7.20;85.31;100530.47;5010068;28;20235;-51
2022/03/18 07:36:15;;;;;;;31.10;17.13;;;;;;;7.30;85.26;100516.97;5011028;28;20192;-48
2022/03/18 07:38:43;;;;;;;34.80;18.20;;;;;;;7.36;86.16;100527.03;5011746;28;20188;-52
2022/03/18 07:41:09;;;;;;;31.77;17.73;;;;;;;7.30;84.55;100525.59;5011487;28;20243;-52
2022/03/18 07:43:37;;;;;;;32.73;18.03;;;;;;;7.26;86.42;100531.88;5011848;28;20200;-51
2022/03/18 07:46:06;;;;;;;27.40;16.80;;;;;;;7.42;85.99;100525.84;5011275;28;20189;-51
2022/03/18 07:48:32;;;;;;;29.77;16.00;;;;;;;7.61;83.53;100530.88;5009473;28;20196;-48
2022/03/18 07:50:59;;;;;;;29.00;17.67;;;;;;;7.30;84.40;100527.38;5009720;28;20224;-50
2022/03/18 07:53:26;;;;;;;29.63;18.27;;;;;;;7.59;83.82;100541.38;5011227;28;20217;-51
2022/03/18 07:55:52;;;;;;;30.40;16.00;;;;;;;7.62;84.10;100542.94;5010400;28;20181;-48
2022/03/18 07:58:19;;;;;;;29.93;17.23;;;;;;;7.39;84.54;100542.47;5010874;28;20560;-49
2022/03/18 08:00:47;;;;;;;22.13;12.40;;;;;;;7.01;85.84;100555.72;5010592;28;20238;-52
2022/03/18 08:03:14;;;;;;;29.10;16.23;;;;;;;7.28;85.35;100547.38;5010400;28;20204;-51
2022/03/18 08:05:41;;;;;;;31.20;15.83;;;;;;;6.97;86.35;100559.38;5009882;28;20218;-47
2022/03/18 08:08:09;;;;;;;33.47;17.30;;;;;;;7.25;86.15;100558.75;5011393;28;20181;-50
2022/03/18 08:10:36;;;;;;;31.80;16.60;;;;;;;7.09;84.16;100564.78;5010894;28;20215;-51
2022/03/18 08:13:03;;;;;;;32.23;16.90;;;;;;;7.36;84.50;100556.44;5011140;28;20239;-51
2022/03/18 08:15:30;;;;;;;20.33;11.20;;;;;;;7.21;84.32;100563.31;5010082;28;20185;-51
2022/03/18 08:17:58;;;;;;;29.60;16.40;;;;;;;7.45;83.89;100559.47;5008648;28;20217;-48
2022/03/18 08:20:26;;;;;;;31.23;15.67;;;;;;;7.60;82.24;100560.38;4990924;28;20217;-49
2022/03/18 08:22:53;;;;;;;27.07;15.80;;;;;;;7.71;82.16;100559.81;4991689;28;20189;-49
2022/03/18 08:25:20;;;;;;;23.47;10.40;;;;;;;7.54;82.27;100567.59;4990663;28;20213;-52
2022/03/18 08:27:49;;;;;;;30.83;16.90;;;;;;;7.32;83.58;100565.31;4991330;28;20185;-51
2022/03/18 08:30:16;;;;;;;27.33;15.67;;;;;;;7.75;81.39;100575.13;4991039;28;20301;-48
2022/03/18 08:32:44;;;;;;;26.30;15.40;;;;;;;7.73;82.00;100569.19;4991224;28;20197;-49
2022/03/18 08:35:12;;;;;;;19.50;10.60;;;;;;;7.56;81.98;100572.72;4990744;28;20211;-51
2022/03/18 08:37:57;;;;;;;179.67;81.83;;;;;;;7.51;83.10;100564.34;4991424;28;20296;-51
2022/03/18 08:40:25;;;;;;;27.03;16.73;;;;;;;7.87;80.75;100571.03;4990722;28;20576;-52
2022/03/18 08:42:52;;;;;;;30.43;16.00;;;;;;;7.95;80.93;100581.81;4994815;28;20200;-48
2022/03/18 08:45:19;;;;;;;31.20;19.47;;;;;;;7.53;81.03;100583.28;5006708;28;20656;-48
2022/03/18 08:47:46;;;;;;;31.73;16.93;;;;;;;7.73;82.65;100583.97;5008686;28;20669;-50
2022/03/18 08:50:15;;;;;;;32.73;18.43;;;;;;;7.85;80.84;100590.22;5010098;28;20437;-48
2022/03/18 08:52:43;;;;;;;20.03;10.97;;;;;;;7.58;81.08;100585.63;5010654;28;20650;-47
2022/03/18 08:55:11;;;;;;;28.53;16.57;;;;;;;7.82;81.18;100586.88;5010002;28;20187;-48
2022/03/18 08:57:38;;;;;;;27.50;15.27;;;;;;;8.18;78.72;100591.88;5001168;28;20736;-47
2022/03/18 09:00:07;;;;;;;25.70;15.23;;;;;;;8.39;77.96;100584.59;4999994;28;20224;-48
2022/03/18 09:02:35;;;;;;;27.90;16.63;;;;;;;8.63;76.51;100578.94;5009686;28;20695;-50
2022/03/18 09:05:03;;;;;;;28.03;16.17;;;;;;;8.45;77.56;100581.66;5005634;28;20262;-50
2022/03/18 09:07:31;;;;;;;24.77;14.90;;;;;;;9.21;82.89;100584.19;5010860;28;20206;-44
2022/03/18 09:09:58;;;;;;;31.20;16.73;;;;;;;8.93;76.04;100593.69;5009691;28;20205;-53
2022/03/18 09:12:25;;;;;;;26.07;16.00;;;;;;;9.34;74.74;100590.31;5017771;28;20196;-52
2022/03/18 09:14:53;;;;;;;28.40;15.97;;;;;;;9.34;71.94;100599.94;5009378;28;20201;-50
2022/03/18 09:17:19;;;;;;;27.77;16.40;;;;;;;8.91;74.96;100605.97;5007249;28;20255;-50
2022/03/18 09:19:46;;;;;;;32.00;17.67;;;;;;;9.19;74.08;100599.94;5007180;28;20352;-51
2022/03/18 09:22:16;;;;;;;26.03;16.10;;;;;;;9.54;73.05;100594.28;5007270;28;20199;-50
2022/03/18 09:24:46;;;;;;;27.37;16.83;;;;;;;9.39;71.79;100601.31;5006979;28;20824;-52
2022/03/18 09:27:14;;;;;;;26.63;16.30;;;;;;;9.78;71.52;100598.91;5007535;28;20223;-49
2022/03/18 09:29:41;;;;;;;28.17;16.77;;;;;;;9.79;70.51;100600.59;5007350;28;20557;-51
2022/03/18 09:32:08;;;;;;;36.33;17.70;;;;;;;9.25;72.60;100609.97;5007348;28;20195;-49
2022/03/18 09:34:35;;;;;;;27.73;16.90;;;;;;;9.50;72.15;100605.03;5007142;28;20216;-49
2022/03/18 09:37:03;;;;;;;31.67;17.23;;;;;;;9.24;72.39;100607.44;5006103;28;20192;-51
2022/03/18 09:39:30;;;;;;;32.70;17.07;;;;;;;9.13;72.99;100598.50;5007343;28;20308;-49
2022/03/18 09:41:58;;;;;;;25.53;16.50;;;;;;;9.31;72.80;100606.16;5007211;28;20208;-51
2022/03/18 09:44:25;;;;;;;30.10;16.97;;;;;;;9.40;72.19;100605.59;5007138;28;20255;-51
2022/03/18 09:46:52;;;;;;;29.73;17.77;;;;;;;9.51;71.10;100611.91;5007379;28;20272;-52
2022/03/18 09:49:22;;;;;;;30.27;15.57;;;;;;;9.06;71.76;100601.59;5004350;28;20931;-49
2022/03/18 09:51:49;;;;;;;30.67;17.53;;;;;;;9.19;72.36;100599.94;5007479;28;20202;-50
2022/03/18 09:54:26;;;;;;;31.43;17.93;;;;;;;9.56;69.82;100604.63;5014436;28;20207;-53
2022/03/18 09:56:53;;;;;;;28.43;17.93;;;;;;;9.78;69.74;100608.50;5006762;28;20229;-51
2022/03/18 09:59:23;;;;;;;29.73;17.67;;;;;;;9.70;68.58;100602.00;5007505;28;20190;-52
2022/03/18 10:01:50;;;;;;;30.53;18.07;;;;;;;9.47;69.10;100593.03;5006636;28;20766;-50
2022/03/18 10:04:17;;;;;;;18.27;10.47;;;;;;;9.25;69.84;100611.72;5006708;28;20208;-50
2022/03/18 10:06:44;;;;;;;34.30;18.23;;;;;;;9.34;70.90;100608.56;5005526;28;20240;-51
2022/03/18 10:09:12;;;;;;;31.23;17.47;;;;;;;9.59;68.85;100607.88;5007003;28;20664;-51
2022/03/18 10:11:43;;;;;;;29.57;16.77;;;;;;;9.86;68.38;100607.09;5007107;28;20691;-52
2022/03/18 10:14:14;;;;;;;35.53;18.77;;;;;;;10.24;67.38;100609.94;5005785;28;20188;-48
2022/03/18 10:16:44;;;;;;;27.90;15.13;;;;;;;9.49;68.87;100613.78;5007429;28;20186;-53
2022/03/18 10:19:13;;;;;;;29.70;17.63;;;;;;;9.66;67.78;100605.75;4994671;28;20246;-51
2022/03/18 10:21:53;;;;;;;30.90;17.23;;;;;;;10.07;66.48;100601.44;4987544;28;20207;-49
2022/03/18 10:24:27;;;;;;;29.57;16.70;;;;;;;10.25;66.34;100601.19;4987486;28;20197;-48
2022/03/18 10:27:10;;;;;;;29.77;17.47;;;;;;;10.21;65.44;100602.31;4987430;28;20191;-50
2022/03/18 10:29:42;;;;;;;32.67;16.93;;;;;;;9.81;66.48;100603.94;4987101;28;20310;-52
2022/03/18 10:32:11;;;;;;;27.87;15.57;;;;;;;9.68;66.67;100623.88;4987634;28;20217;-53
2022/03/18 10:37:25;;;;;;;27.30;13.60;;;;;;;9.46;67.45;100609.59;4985950;28;20209;-52
2022/03/18 10:40:00;;;;;;;31.57;18.10;;;;;;;9.87;66.97;100610.53;4989376;28;20226;-50
2022/03/18 10:42:27;;;;;;;35.47;16.03;;;;;;;9.82;65.40;100604.78;4990952;28;20549;-50
2022/03/18 10:44:55;;;;;;;29.67;16.67;;;;;;;10.21;64.38;100604.94;4990671;28;20208;-49
2022/03/18 10:47:31;;;;;;;28.60;16.73;;;;;;;9.64;65.02;100605.00;4991088;28;20186;-49
2022/03/18 10:50:16;;;;;;;27.10;16.63;;;;;;;10.41;63.73;100607.13;4990542;28;20284;-52
2022/03/18 10:53:03;;;;;;;28.07;16.53;;;;;;;10.58;63.13;100608.59;4990959;28;20198;-50
2022/03/18 10:55:34;;;;;;;43.67;21.63;;;;;;;10.46;62.48;100606.78;4990724;28;20179;-50
2022/03/18 10:58:04;;;;;;;49.30;32.50;;;;;;;10.28;63.43;100612.25;4990599;28;20189;-48
2022/03/18 11:00:32;;;;;;;28.67;16.67;;;;;;;10.67;62.89;100609.75;4990332;28;20228;-49
2022/03/18 11:03:02;;;;;;;28.47;16.73;;;;;;;10.49;63.96;100614.44;4990602;28;20187;-49
2022/03/18 11:05:33;;;;;;;27.03;16.53;;;;;;;10.14;63.93;100620.13;4991960;28;20221;-51
2022/03/18 11:08:02;;;;;;;30.90;16.47;;;;;;;10.17;64.66;100622.53;5006358;28;20198;-48
2022/03/18 11:13:15;;;;;;;30.10;16.43;;;;;;;9.95;63.84;100617.88;5010369;28;20209;-48
2022/03/18 11:15:44;;;;;;;28.07;17.57;;;;;;;10.27;62.89;100599.31;5009667;28;20196;-50
2022/03/18 11:18:13;;;;;;;24.77;13.40;;;;;;;9.61;64.52;100613.00;5010132;28;20205;-49
2022/03/18 11:20:43;;;;;;;33.47;16.67;;;;;;;9.73;64.93;100611.41;5009604;28;20221;-48
2022/03/18 11:23:17;;;;;;;28.83;14.30;;;;;;;9.90;63.25;100610.34;5009647;28;20197;-48
2022/03/18 11:25:45;;;;;;;29.80;17.57;;;;;;;10.30;62.19;100614.78;5009518;28;20209;-50
2022/03/18 11:28:15;;;;;;;33.90;16.70;;;;;;;10.20;62.54;100619.75;5009791;28;20197;-49
2022/03/18 11:30:44;;;;;;;34.57;18.10;;;;;;;10.51;62.83;100614.34;5008979;28;20653;-49
2022/03/18 11:33:22;;;;;;;30.10;17.53;;;;;;;10.04;63.51;100602.47;5008840;28;20197;-51
2022/03/18 11:36:09;;;;;;;33.13;17.97;;;;;;;10.00;63.21;100621.03;5009228;28;20192;-48